createdAt,value
2018-05-07T00:02:10.835Z,14.40
2018-05-07T00:04:38.429Z,14.40
2018-05-07T00:07:06.151Z,14.40
2018-05-07T00:09:34.252Z,14.30
2018-05-07T00:12:01.942Z,14.30
2018-05-07T00:14:29.486Z,14.30
2018-05-07T00:16:57.058Z,14.30
2018-05-07T00:19:25.610Z,14.20
2018-05-07T00:21:53.875Z,14.20
2018-05-07T00:24:21.538Z,14.20
2018-05-07T00:26:49.277Z,14.20
2018-05-07T00:29:16.877Z,14.10
2018-05-07T00:31:45.369Z,14.10
2018-05-07T00:34:12.932Z,14.00
2018-05-07T00:36:41.588Z,14.00
2018-05-07T00:39:09.779Z,13.90
2018-05-07T00:41:37.665Z,13.90
2018-05-07T00:44:05.797Z,13.90
2018-05-07T00:46:33.328Z,14.00
2018-05-07T00:49:01.030Z,13.90
2018-05-07T00:51:29.529Z,13.90
2018-05-07T00:53:57.802Z,13.90
2018-05-07T00:56:25.687Z,13.90
2018-05-07T00:58:54.032Z,13.80
2018-05-07T01:01:21.792Z,13.80
2018-05-07T01:03:49.350Z,13.80
2018-05-07T01:06:16.878Z,13.80
2018-05-07T01:08:44.998Z,13.80
2018-05-07T01:11:13.514Z,13.70
2018-05-07T01:13:41.030Z,13.70
2018-05-07T01:16:09.098Z,13.70
2018-05-07T01:18:37.461Z,13.60
2018-05-07T01:21:04.991Z,13.60
2018-05-07T01:23:32.595Z,13.60
2018-05-07T01:26:00.124Z,13.60
2018-05-07T01:28:28.400Z,13.60
2018-05-07T01:30:56.810Z,13.60
2018-05-07T01:33:24.797Z,13.60
2018-05-07T01:35:52.936Z,13.60
2018-05-07T01:38:20.718Z,13.50
2018-05-07T01:40:48.944Z,13.50
2018-05-07T01:43:17.726Z,13.50
2018-05-07T01:45:46.730Z,13.40
2018-05-07T01:48:14.519Z,13.50
2018-05-07T01:50:42.047Z,13.40
2018-05-07T01:53:09.746Z,13.30
2018-05-07T01:55:38.186Z,13.30
2018-05-07T01:58:05.720Z,13.30
2018-05-07T02:00:33.455Z,13.30
2018-05-07T02:03:01.113Z,13.30
2018-05-07T02:05:29.550Z,13.20
2018-05-07T02:07:57.113Z,13.20
2018-05-07T02:10:25.457Z,13.20
2018-05-07T02:12:53.404Z,13.20
2018-05-07T02:15:20.954Z,13.20
2018-05-07T02:17:48.908Z,13.20
2018-05-07T02:20:17.213Z,13.20
2018-05-07T02:22:45.496Z,13.10
2018-05-07T02:25:13.007Z,13.20
2018-05-07T02:27:40.561Z,13.20
2018-05-07T02:30:08.061Z,13.20
2018-05-07T02:32:35.727Z,13.10
2018-05-07T02:35:03.245Z,13.10
2018-05-07T02:37:31.371Z,13.10
2018-05-07T02:39:59.363Z,13.10
2018-05-07T02:42:26.886Z,13.10
2018-05-07T02:44:54.451Z,13.00
2018-05-07T02:47:22.400Z,13.00
2018-05-07T02:49:50.745Z,13.00
2018-05-07T02:52:18.326Z,12.90
2018-05-07T02:54:46.089Z,12.90
2018-05-07T02:57:13.802Z,12.90
2018-05-07T02:59:41.694Z,12.90
2018-05-07T03:02:09.680Z,12.90
2018-05-07T03:04:37.206Z,12.90
2018-05-07T03:07:04.756Z,12.90
2018-05-07T03:09:32.807Z,12.80
2018-05-07T03:12:00.345Z,12.90
2018-05-07T03:14:30.866Z,12.80
2018-05-07T03:16:58.394Z,12.80
2018-05-07T03:19:27.309Z,12.80
2018-05-07T03:21:54.866Z,12.80
2018-05-07T03:24:23.345Z,12.80
2018-05-07T03:26:51.217Z,12.80
2018-05-07T03:29:18.799Z,12.80
2018-05-07T03:31:46.377Z,12.80
2018-05-07T03:34:13.905Z,12.80
2018-05-07T03:36:41.615Z,12.90
2018-05-07T03:39:09.134Z,12.90
2018-05-07T03:41:36.730Z,12.90
2018-05-07T03:44:04.339Z,13.00
2018-05-07T03:46:31.841Z,13.00
2018-05-07T03:48:59.369Z,13.00
2018-05-07T03:51:27.033Z,13.10
2018-05-07T03:53:55.319Z,13.20
2018-05-07T03:56:24.393Z,13.20
2018-05-07T03:58:53.643Z,13.20
2018-05-07T04:01:21.165Z,13.30
2018-05-07T04:03:49.029Z,13.40
2018-05-07T04:06:16.854Z,13.50
2018-05-07T04:08:45.022Z,13.50
2018-05-07T04:11:13.032Z,13.60
2018-05-07T04:13:40.562Z,13.80
2018-05-07T04:16:08.488Z,15.20
2018-05-07T04:18:47.692Z,16.90
2018-05-07T04:21:15.907Z,18.50
2018-05-07T04:23:55.279Z,20.10
2018-05-07T04:26:23.748Z,21.30
2018-05-07T04:28:51.297Z,22.40
2018-05-07T04:31:18.870Z,23.50
2018-05-07T04:33:46.588Z,24.40
2018-05-07T04:36:14.158Z,25.00
2018-05-07T04:38:42.479Z,27.00
2018-05-07T04:41:10.405Z,27.00
2018-05-07T04:43:37.936Z,27.80
2018-05-07T04:46:05.464Z,28.20
2018-05-07T04:48:33.650Z,28.80
2018-05-07T04:51:01.212Z,29.50
2018-05-07T04:53:28.718Z,29.80
2018-05-07T04:55:56.436Z,30.40
2018-05-07T04:58:24.764Z,31.60
2018-05-07T05:00:52.370Z,31.60
2018-05-07T05:03:20.597Z,32.40
2018-05-07T05:05:49.116Z,33.40
2018-05-07T05:08:16.713Z,33.40
2018-05-07T05:10:44.335Z,34.10
2018-05-07T05:13:12.681Z,35.90
2018-05-07T05:15:40.954Z,36.50
2018-05-07T05:18:08.478Z,36.40
2018-05-07T05:20:36.032Z,36.80
2018-05-07T05:23:05.234Z,37.00
2018-05-07T05:25:32.834Z,37.40
2018-05-07T05:28:01.188Z,38.80
2018-05-07T05:30:28.704Z,38.80
2018-05-07T05:32:57.625Z,39.70
2018-05-07T05:35:25.432Z,40.10
2018-05-07T05:37:52.974Z,40.00
2018-05-07T05:40:21.940Z,40.40
2018-05-07T05:42:49.682Z,40.40
2018-05-07T05:45:17.199Z,40.90
2018-05-07T05:47:45.828Z,41.90
2018-05-07T05:50:13.618Z,41.80
2018-05-07T05:52:41.894Z,41.90
2018-05-07T05:55:09.724Z,41.70
2018-05-07T05:57:37.304Z,41.90
2018-05-07T06:00:04.966Z,41.60
2018-05-07T06:02:32.659Z,42.20
2018-05-07T06:05:01.119Z,43.10
2018-05-07T06:07:28.757Z,43.00
2018-05-07T06:09:57.377Z,43.60
2018-05-07T06:12:24.954Z,43.80
2018-05-07T06:14:52.709Z,43.60
2018-05-07T06:17:20.911Z,43.60
2018-05-07T06:19:48.688Z,43.50
2018-05-07T06:22:16.360Z,44.20
2018-05-07T06:24:44.293Z,44.60
2018-05-07T06:27:12.698Z,44.20
2018-05-07T06:29:40.234Z,44.20
2018-05-07T06:32:09.122Z,43.20
2018-05-07T06:34:37.531Z,41.80
2018-05-07T06:37:05.229Z,42.10
2018-05-07T06:39:32.859Z,41.80
2018-05-07T06:42:00.366Z,41.50
2018-05-07T06:44:27.989Z,42.20
2018-05-07T06:46:55.628Z,42.60
2018-05-07T06:49:23.845Z,42.30
2018-05-07T06:51:51.592Z,41.90
2018-05-07T06:54:19.173Z,41.30
2018-05-07T06:56:46.726Z,41.30
2018-05-07T06:59:14.280Z,40.50
2018-05-07T07:01:41.823Z,40.90
2018-05-07T07:04:09.573Z,41.10
2018-05-07T07:06:37.149Z,40.90
2018-05-07T07:09:05.754Z,40.50
2018-05-07T07:11:34.190Z,39.80
2018-05-07T07:14:02.695Z,39.10
2018-05-07T07:16:31.337Z,39.00
2018-05-07T07:18:59.572Z,38.20
2018-05-07T07:21:27.179Z,38.00
2018-05-07T07:23:54.904Z,37.70
2018-05-07T07:26:22.486Z,37.00
2018-05-07T07:28:50.337Z,36.40
2018-05-07T07:31:18.262Z,36.00
2018-05-07T07:33:46.658Z,35.30
2018-05-07T07:36:14.564Z,35.30
2018-05-07T07:38:42.309Z,35.00
2018-05-07T07:41:10.266Z,34.30
2018-05-07T07:43:37.902Z,34.10
2018-05-07T07:46:06.539Z,34.50
2018-05-07T07:48:34.377Z,34.40
2018-05-07T07:51:02.061Z,34.40
2018-05-07T07:53:30.537Z,33.50
2018-05-07T07:55:58.112Z,32.70
2018-05-07T07:58:26.472Z,32.30
2018-05-07T08:00:54.223Z,32.10
2018-05-07T08:03:21.766Z,32.00
2018-05-07T08:05:49.503Z,31.70
2018-05-07T08:08:17.065Z,31.70
2018-05-07T08:10:45.037Z,31.80
2018-05-07T08:13:12.655Z,31.40
2018-05-07T08:15:40.260Z,30.80
2018-05-07T08:18:08.579Z,29.60
2018-05-07T08:20:36.103Z,29.60
2018-05-07T08:23:04.548Z,29.30
2018-05-07T08:25:32.304Z,29.30
2018-05-07T08:27:59.840Z,28.80
2018-05-07T08:30:27.598Z,28.50
2018-05-07T08:32:56.249Z,27.80
2018-05-07T08:35:24.013Z,27.80
2018-05-07T08:37:51.845Z,27.60
2018-05-07T08:40:19.435Z,27.10
2018-05-07T08:42:47.517Z,26.60
2018-05-07T08:45:16.419Z,25.70
2018-05-07T08:47:44.099Z,25.60
2018-05-07T08:50:13.131Z,25.00
2018-05-07T08:52:40.873Z,25.00
2018-05-07T08:55:09.274Z,24.80
2018-05-07T08:57:38.550Z,24.80
2018-05-07T09:00:06.201Z,24.70
2018-05-07T09:02:34.594Z,24.30
2018-05-07T09:05:02.465Z,24.30
2018-05-07T09:07:30.217Z,24.40
2018-05-07T09:09:58.017Z,24.40
2018-05-07T09:12:25.597Z,24.30
2018-05-07T09:14:53.700Z,24.10
2018-05-07T09:17:21.301Z,24.00
2018-05-07T09:19:49.256Z,23.70
2018-05-07T09:22:17.017Z,23.70
2018-05-07T09:24:45.822Z,23.60
2018-05-07T09:27:13.277Z,23.60
2018-05-07T09:29:40.787Z,23.50
2018-05-07T09:32:09.289Z,23.50
2018-05-07T09:34:36.986Z,23.40
2018-05-07T09:37:04.582Z,23.30
2018-05-07T09:39:33.013Z,23.20
2018-05-07T09:42:00.571Z,23.10
2018-05-07T09:44:28.275Z,23.00
2018-05-07T09:46:55.837Z,23.00
2018-05-07T09:49:23.779Z,23.10
2018-05-07T09:51:51.687Z,23.10
2018-05-07T09:54:19.199Z,23.00
2018-05-07T09:56:54.523Z,23.00
2018-05-07T09:59:22.037Z,23.00
2018-05-07T10:01:49.631Z,23.00
2018-05-07T10:04:18.470Z,23.00
2018-05-07T10:06:46.034Z,23.00
2018-05-07T10:09:14.176Z,22.90
2018-05-07T10:11:43.470Z,22.70
2018-05-07T10:14:11.777Z,22.80
2018-05-07T10:16:40.185Z,22.70
2018-05-07T10:19:07.979Z,22.70
2018-05-07T10:24:17.672Z,22.60
2018-05-07T10:26:45.318Z,22.80
2018-05-07T10:29:14.154Z,22.90
2018-05-07T10:31:41.908Z,22.70
2018-05-07T10:34:09.436Z,22.60
2018-05-07T10:36:37.056Z,22.60
2018-05-07T10:39:04.648Z,22.70
2018-05-07T10:41:32.967Z,22.90
2018-05-07T10:44:00.628Z,22.80
2018-05-07T10:46:29.046Z,22.90
2018-05-07T10:48:56.704Z,22.90
2018-05-07T10:51:24.648Z,22.80
2018-05-07T10:53:52.291Z,22.90
2018-05-07T10:56:20.333Z,23.00
2018-05-07T10:58:48.026Z,23.10
2018-05-07T11:01:15.557Z,23.10
2018-05-07T11:03:44.557Z,23.00
2018-05-07T11:06:12.353Z,22.90
2018-05-07T11:08:39.876Z,22.90
2018-05-07T11:11:07.431Z,22.80
2018-05-07T11:13:36.958Z,22.90
2018-05-07T11:16:04.978Z,22.90
2018-05-07T11:18:32.784Z,23.00
2018-05-07T11:21:00.470Z,23.00
2018-05-07T11:23:28.018Z,23.00
2018-05-07T11:25:55.627Z,23.00
2018-05-07T11:28:23.155Z,23.00
2018-05-07T11:30:51.922Z,22.90
2018-05-07T11:33:19.479Z,22.90
2018-05-07T11:35:47.756Z,22.90
2018-05-07T11:38:16.055Z,22.80
2018-05-07T11:40:43.622Z,22.80
2018-05-07T11:43:11.187Z,22.90
2018-05-07T11:45:38.735Z,22.90
2018-05-07T11:48:07.260Z,23.00
2018-05-07T11:50:35.710Z,22.80
2018-05-07T11:53:04.027Z,22.80
2018-05-07T11:55:33.687Z,22.90
2018-05-07T11:58:01.221Z,22.90
2018-05-07T12:00:29.413Z,23.10
2018-05-07T12:02:57.092Z,23.00
2018-05-07T12:05:24.619Z,23.10
2018-05-07T12:07:52.871Z,23.20
2018-05-07T12:10:20.496Z,23.30
2018-05-07T12:12:48.027Z,23.20
2018-05-07T12:15:15.700Z,23.10
2018-05-07T12:17:43.382Z,23.10
2018-05-07T12:20:11.163Z,23.20
2018-05-07T12:22:40.692Z,23.20
2018-05-07T12:25:08.618Z,23.30
2018-05-07T12:27:36.795Z,23.20
2018-05-07T12:30:04.387Z,23.30
2018-05-07T12:32:32.207Z,23.30
2018-05-07T12:34:59.803Z,23.30
2018-05-07T12:37:27.528Z,23.20
2018-05-07T12:39:55.157Z,23.20
2018-05-07T12:42:23.489Z,23.30
2018-05-07T12:44:51.329Z,23.20
2018-05-07T12:47:18.865Z,23.20
2018-05-07T12:49:46.458Z,23.10
2018-05-07T12:52:14.008Z,23.10
2018-05-07T12:54:41.710Z,23.20
2018-05-07T12:57:09.350Z,23.20
2018-05-07T12:59:36.909Z,23.20
2018-05-07T13:02:05.317Z,23.20
2018-05-07T13:04:33.065Z,23.20
2018-05-07T13:07:00.692Z,23.20
2018-05-07T13:09:28.299Z,23.20
2018-05-07T13:11:55.862Z,23.20
2018-05-07T13:14:23.538Z,23.20
2018-05-07T13:16:51.072Z,23.30
2018-05-07T13:19:18.593Z,23.40
2018-05-07T13:21:47.040Z,23.50
2018-05-07T13:24:14.825Z,23.50
2018-05-07T13:26:42.628Z,23.60
2018-05-07T13:29:10.294Z,23.60
2018-05-07T13:31:38.770Z,23.50
2018-05-07T13:34:06.491Z,23.60
2018-05-07T13:36:34.099Z,23.60
2018-05-07T13:39:01.847Z,23.70
2018-05-07T13:41:30.112Z,23.70
2018-05-07T13:43:58.425Z,23.70
2018-05-07T13:46:26.097Z,23.70
2018-05-07T13:48:55.005Z,23.70
2018-05-07T13:51:22.853Z,23.70
2018-05-07T13:53:50.589Z,23.80
2018-05-07T13:56:18.099Z,23.80
2018-05-07T13:58:45.678Z,23.80
2018-05-07T14:01:13.233Z,23.70
2018-05-07T14:03:41.659Z,23.70
2018-05-07T14:06:09.322Z,23.80
2018-05-07T14:08:37.425Z,23.90
2018-05-07T14:11:04.919Z,24.00
2018-05-07T14:13:33.171Z,24.00
2018-05-07T14:16:00.870Z,24.00
2018-05-07T14:18:28.551Z,24.00
2018-05-07T14:20:56.402Z,23.90
2018-05-07T14:23:23.922Z,24.00
2018-05-07T14:25:51.449Z,24.00
2018-05-07T14:28:19.175Z,24.00
2018-05-07T14:30:49.555Z,24.00
2018-05-07T14:33:17.397Z,24.00
2018-05-07T14:35:44.970Z,24.10
2018-05-07T14:38:12.518Z,24.10
2018-05-07T14:40:40.504Z,24.10
2018-05-07T14:43:08.247Z,24.00
2018-05-07T14:45:36.026Z,24.10
2018-05-07T14:48:03.653Z,24.00
2018-05-07T14:50:31.207Z,24.00
2018-05-07T14:52:59.107Z,24.00
2018-05-07T14:55:26.657Z,23.90
2018-05-07T14:57:54.283Z,24.00
2018-05-07T15:00:21.934Z,24.00
2018-05-07T15:02:50.104Z,24.10
2018-05-07T15:05:18.491Z,24.00
2018-05-07T15:07:46.352Z,24.00
2018-05-07T15:10:14.179Z,24.00
2018-05-07T15:12:41.779Z,23.90
2018-05-07T15:15:09.606Z,23.90
2018-05-07T15:17:37.386Z,23.90
2018-05-07T15:20:04.953Z,23.90
2018-05-07T15:22:32.827Z,24.00
2018-05-07T15:25:00.448Z,24.00
2018-05-07T15:27:27.968Z,23.90
2018-05-07T15:29:56.290Z,23.70
2018-05-07T15:32:23.892Z,23.70
2018-05-07T15:34:51.412Z,23.80
2018-05-07T15:37:20.084Z,23.90
2018-05-07T15:39:48.572Z,23.90
2018-05-07T15:42:16.517Z,23.90
2018-05-07T15:44:47.306Z,23.90
2018-05-07T15:47:14.952Z,24.00
2018-05-07T15:49:43.927Z,24.00
2018-05-07T15:52:12.240Z,24.00
2018-05-07T15:54:41.644Z,23.90
2018-05-07T15:57:09.241Z,23.80
2018-05-07T15:59:37.620Z,23.80
2018-05-07T16:02:05.534Z,23.80
2018-05-07T16:04:33.913Z,23.80
2018-05-07T16:07:01.789Z,23.80
2018-05-07T16:09:31.078Z,23.80
2018-05-07T16:11:59.061Z,23.80
2018-05-07T16:14:27.243Z,23.80
2018-05-07T16:16:54.816Z,23.80
2018-05-07T16:19:22.403Z,23.70
2018-05-07T16:21:50.809Z,23.70
2018-05-07T16:24:19.101Z,23.70
2018-05-07T16:26:46.669Z,23.70
2018-05-07T16:29:15.244Z,23.70
2018-05-07T16:31:43.003Z,23.60
2018-05-07T16:34:10.576Z,23.60
2018-05-07T16:36:38.115Z,23.50
2018-05-07T16:39:05.784Z,23.50
2018-05-07T16:41:33.411Z,23.50
2018-05-07T16:44:01.113Z,23.50
2018-05-07T16:46:29.351Z,23.50
2018-05-07T16:48:56.986Z,23.50
2018-05-07T16:51:24.523Z,23.40
2018-05-07T16:53:52.133Z,23.40
2018-05-07T16:56:19.728Z,23.30
2018-05-07T16:58:47.311Z,23.30
2018-05-07T17:01:15.090Z,23.20
2018-05-07T17:03:43.832Z,23.20
2018-05-07T17:06:11.380Z,23.20
2018-05-07T17:08:39.556Z,23.20
2018-05-07T17:11:07.939Z,23.10
2018-05-07T17:13:35.478Z,23.00
2018-05-07T17:16:03.255Z,23.00
2018-05-07T17:18:31.000Z,22.90
2018-05-07T17:20:58.730Z,22.90
2018-05-07T17:23:26.399Z,22.90
2018-05-07T17:25:53.918Z,22.90
2018-05-07T17:28:22.730Z,22.90
2018-05-07T17:30:51.532Z,22.80
2018-05-07T17:33:19.089Z,22.80
2018-05-07T17:35:47.409Z,22.80
2018-05-07T17:38:14.968Z,22.70
2018-05-07T17:40:43.304Z,22.70
2018-05-07T17:43:10.963Z,22.60
2018-05-07T17:45:54.068Z,22.60
2018-05-07T17:48:33.806Z,22.60
2018-05-07T17:51:01.841Z,22.50
2018-05-07T17:53:29.860Z,22.40
2018-05-07T17:55:57.485Z,22.40
2018-05-07T17:58:25.934Z,22.30
2018-05-07T18:00:54.837Z,22.30
2018-05-07T18:03:22.764Z,22.30
2018-05-07T18:05:51.271Z,22.20
2018-05-07T18:08:18.969Z,22.20
2018-05-07T18:10:46.694Z,22.20
2018-05-07T18:13:14.249Z,22.10
2018-05-07T18:15:41.876Z,22.00
2018-05-07T18:18:09.628Z,22.00
2018-05-07T18:20:37.924Z,21.90
2018-05-07T18:23:05.517Z,21.90
2018-05-07T18:25:33.771Z,21.90
2018-05-07T18:28:01.340Z,21.80
2018-05-07T18:30:29.928Z,21.70
2018-05-07T18:32:58.456Z,21.70
2018-05-07T18:35:26.381Z,21.60
2018-05-07T18:37:54.842Z,21.60
2018-05-07T18:40:23.137Z,21.50
2018-05-07T18:42:51.977Z,21.50
2018-05-07T18:45:19.722Z,21.40
2018-05-07T18:47:47.554Z,21.40
2018-05-07T18:50:15.431Z,21.40
2018-05-07T18:52:42.977Z,21.30
2018-05-07T18:55:10.854Z,21.30
2018-05-07T18:57:39.305Z,21.20
2018-05-07T19:00:07.108Z,21.10
2018-05-07T19:02:34.850Z,21.00
2018-05-07T19:05:02.436Z,21.00
2018-05-07T19:07:30.745Z,20.90
2018-05-07T19:09:58.888Z,20.90
2018-05-07T19:12:26.478Z,20.90
2018-05-07T19:14:54.226Z,20.80
2018-05-07T19:17:21.815Z,20.80
2018-05-07T19:19:49.594Z,20.70
2018-05-07T19:22:19.525Z,20.70
2018-05-07T19:24:47.357Z,20.70
2018-05-07T19:27:15.090Z,20.70
2018-05-07T19:29:43.421Z,20.60
2018-05-07T19:32:11.143Z,20.60
2018-05-07T19:34:39.793Z,20.60
2018-05-07T19:37:07.987Z,20.50
2018-05-07T19:39:35.635Z,20.40
2018-05-07T19:42:03.206Z,20.40
2018-05-07T19:44:31.511Z,20.40
2018-05-07T19:46:59.166Z,20.30
2018-05-07T19:49:26.791Z,20.30
2018-05-07T19:51:55.055Z,20.20
2018-05-07T19:54:23.189Z,20.20
2018-05-07T19:56:50.848Z,20.20
2018-05-07T19:59:18.696Z,20.10
2018-05-07T20:01:46.381Z,20.10
2018-05-07T20:04:15.323Z,20.10
2018-05-07T20:06:43.620Z,20.00
2018-05-07T20:09:12.214Z,20.00
2018-05-07T20:11:39.745Z,19.90
2018-05-07T20:14:07.395Z,19.90
2018-05-07T20:16:35.478Z,19.90
2018-05-07T20:19:04.423Z,19.80
2018-05-07T20:21:32.172Z,19.80
2018-05-07T20:24:00.370Z,19.80
2018-05-07T20:26:28.450Z,19.70
2018-05-07T20:28:56.776Z,19.60
2018-05-07T20:31:24.341Z,19.60
2018-05-07T20:33:52.255Z,19.60
2018-05-07T20:36:20.577Z,19.60
2018-05-07T20:38:49.317Z,19.60
2018-05-07T20:41:18.436Z,19.50
2018-05-07T20:43:46.375Z,19.50
2018-05-07T20:46:15.279Z,19.40
2018-05-07T20:48:43.639Z,19.40
2018-05-07T20:51:11.324Z,19.40
2018-05-07T20:53:38.946Z,19.40
2018-05-07T20:56:06.521Z,19.30
2018-05-07T20:58:34.973Z,19.20
2018-05-07T21:01:02.518Z,19.10
2018-05-07T21:03:30.306Z,19.10
2018-05-07T21:05:57.864Z,19.10
2018-05-07T21:08:26.321Z,19.10
2018-05-07T21:10:54.607Z,19.10
2018-05-07T21:13:22.425Z,19.10
2018-05-07T21:15:51.279Z,19.10
2018-05-07T21:18:19.215Z,19.00
2018-05-07T21:20:46.843Z,19.00
2018-05-07T21:23:16.142Z,19.00
2018-05-07T21:25:49.171Z,18.90
2018-05-07T21:28:17.400Z,18.90
2018-05-07T21:30:45.757Z,18.90
2018-05-07T21:33:13.408Z,18.90
2018-05-07T21:35:43.134Z,18.90
2018-05-07T21:38:10.862Z,18.80
2018-05-07T21:40:39.131Z,18.80
2018-05-07T21:43:07.417Z,18.70
2018-05-07T21:45:35.127Z,18.70
2018-05-07T21:48:04.020Z,18.70
2018-05-07T21:50:31.662Z,18.70
2018-05-07T21:52:59.956Z,18.70
2018-05-07T21:55:27.812Z,18.60
2018-05-07T21:57:55.627Z,18.60
2018-05-07T22:00:23.346Z,18.60
2018-05-07T22:02:51.662Z,18.50
2018-05-07T22:05:19.385Z,18.40
2018-05-07T22:07:47.780Z,18.40
2018-05-07T22:10:18.308Z,18.30
2018-05-07T22:12:46.357Z,18.30
2018-05-07T22:15:13.923Z,18.30
2018-05-07T22:17:41.511Z,18.20
2018-05-07T22:20:10.920Z,18.20
2018-05-07T22:22:38.991Z,18.10
2018-05-07T22:25:06.774Z,18.10
2018-05-07T22:27:35.094Z,18.00
2018-05-07T22:30:02.869Z,18.00
2018-05-07T22:32:30.385Z,18.00
2018-05-07T22:34:58.459Z,17.90
2018-05-07T22:37:26.764Z,17.80
2018-05-07T22:39:54.299Z,17.80
2018-05-07T22:42:21.841Z,17.80
2018-05-07T22:44:49.391Z,17.80
2018-05-07T22:47:16.907Z,17.70
2018-05-07T22:49:45.343Z,17.70
2018-05-07T22:52:12.923Z,17.70
2018-05-07T22:54:40.554Z,17.60
2018-05-07T22:57:08.628Z,17.60
2018-05-07T22:59:36.126Z,17.60
2018-05-07T23:02:05.141Z,17.60
2018-05-07T23:04:32.747Z,17.60
2018-05-07T23:07:00.256Z,17.50
2018-05-07T23:09:29.216Z,17.50
2018-05-07T23:11:58.646Z,17.40
2018-05-07T23:14:26.317Z,17.40
2018-05-07T23:16:54.561Z,17.40
2018-05-07T23:19:22.106Z,17.40
2018-05-07T23:21:49.667Z,17.30
2018-05-07T23:24:17.193Z,17.20
2018-05-07T23:26:44.708Z,17.20
2018-05-07T23:29:13.090Z,17.10
2018-05-07T23:31:41.535Z,17.10
2018-05-07T23:34:09.105Z,17.10
2018-05-07T23:36:36.641Z,17.00
2018-05-07T23:39:04.258Z,17.00
2018-05-07T23:41:32.444Z,17.00
2018-05-07T23:44:00.560Z,16.90
2018-05-07T23:46:28.104Z,16.90
2018-05-07T23:48:55.668Z,16.80
2018-05-07T23:51:23.184Z,16.80
2018-05-07T23:53:52.215Z,16.70
2018-05-07T23:56:20.781Z,16.70
2018-05-07T23:58:48.367Z,16.70
